Main page
METAR-TAF:

METAR-TAF

Airports :

Sharjah International Airport

Sharjah, United Arab Emirates

latitude: 25-20N, longitude: 055-31E, elevation: 35 m

Current weather observation

The report was made 26 minutes ago, at 14:00 UTC
Wind 2 kt from the Northwest
Temperature 29°C
Humidity 40%
Pressure 1012 hPa
Visibility 10 km or more
no clouds below 1500 m and no cumulonimbus

METAR: OMSJ 141400Z 31002KT CAVOK 29/14 Q1012

Time: 18:26 (14:26 UTC)

Forecast

The report was made 3 hours and 28 minutes ago, at 10:58 UTC
Forecast valid from 14 at 12 UTC to 15 at 18 UTC
Wind 10 kt from the North/Northwest
Visibility: 8000 m
Becoming
from 14 at 15 UTC to 14 at 17 UTC
Wind 5 kt from the East
Becoming
from 15 at 10 UTC to 15 at 12 UTC
Wind 12 kt from the North
Becoming
from 15 at 13 UTC to 15 at 15 UTC
Wind 7 kt from the East

TAF: OMSJ 141058Z 1412/1518 33010KT 8000 NSC BECMG 1415/1417 09005KT BECMG 1510/1512 35012KT BECMG 1513/1515 10007KT

Weather observations and forecasts of more than 4000 airports (METAR and TAF reports).

The available stations are represented by yellow and red dots on the map.

Hover mouse over dot to see the name of the station.

Then click to see weather observations and forecasts.

To change the map : click on the green buttons with a black cross to zoom in, on the green button with a dash to zoom out, or on the green arrows for adjacent maps.


METAR-TAF: